Bookmark and Share
Track history (hours):
 

Seo Young

Last reported at 2014-Apr-19 06:25 UTC. Time now 2014-Apr-21 15:11 UTC.
Position N 31°44' E 121°04'.

Length 121 m; draft 7.5 m.

Type: Tanker. MMSI: 440036000.

NotesDate/timePositionNaut miles runAvg speedWind from/ knotsBaromVisibWave heightAir tempDewpointWater temp
2014-Apr-19 06:25N 31°44' E 121°04'2 0.1
2014-Apr-18 07:31N 31°45' E 121°02'6 5.7
2014-Apr-18 06:24N 31°42' E 121°09'152 4.4
2014-Apr-16 19:31N 29°50' E 123°08'45510.9
2014-Apr-15 01:33N 22°48' E 119°56'1413.6
2014-Apr-15 00:33N 22°41' E 120°09'10 9.9
2014-Apr-14 23:34N 22°35' E 120°18'0 0.1
2014-Apr-14 18:34N 22°35' E 120°18'1 1.3
2014-Apr-14 17:33N 22°36' E 120°17'0 0.0
2014-Apr-14 16:33N 22°36' E 120°17'0 0.0
2014-Apr-14 15:33N 22°36' E 120°17'0 0.0
2014-Apr-14 14:33N 22°36' E 120°17'0 0.0
2014-Apr-14 13:34N 22°36' E 120°17'0 0.0
2014-Apr-14 11:34N 22°36' E 120°17'0 0.0
2014-Apr-14 10:33N 22°36' E 120°17'0 0.0
2014-Apr-14 09:33N 22°36' E 120°17'0 0.0
2014-Apr-14 08:33N 22°36' E 120°17'0 0.0
2014-Apr-14 07:33N 22°36' E 120°17'0 0.0
2014-Apr-14 06:33N 22°36' E 120°17'0 0.0
2014-Apr-14 05:33N 22°36' E 120°17'2 0.2
2014-Apr-13 22:33N 22°35' E 120°18'0 0.0
2014-Apr-13 21:33N 22°35' E 120°18'0 0.1
2014-Apr-13 20:33N 22°35' E 120°18'0 0.1
2014-Apr-13 19:33N 22°35' E 120°18'0 0.0
2014-Apr-13 18:33N 22°35' E 120°18'0 0.1
2014-Apr-13 17:33N 22°35' E 120°18'0 0.0
2014-Apr-13 16:33N 22°35' E 120°18'0 0.0
2014-Apr-13 15:33N 22°35' E 120°18'0 0.1
2014-Apr-13 14:33N 22°35' E 120°18'0 0.0
2014-Apr-13 13:33N 22°35' E 120°18'0 0.0
2014-Apr-13 12:33N 22°35' E 120°18'0 0.0
2014-Apr-13 11:33N 22°35' E 120°18'0 0.0
2014-Apr-13 10:33N 22°35' E 120°18'0 0.0
2014-Apr-13 09:33N 22°35' E 120°18'0 0.0
2014-Apr-13 08:33N 22°35' E 120°18'0 0.1
2014-Apr-13 07:33N 22°35' E 120°18'2 1.6
2014-Apr-13 06:33N 22°36' E 120°17'7 6.9
2014-Apr-13 05:33N 22°36' E 120°10'1312.9
2014-Apr-13 04:32N 22°28' E 119°58'  

Dump ship's entire track history

sailing weather and tide predictions

Seo Young — D7LH — position and weather